Time;durP1;ratioP1;P1;durP2;ratioP2;P2;SDS_P1;SDS_P2;PMS_P1;PMS_P2;Temp;Humidity;BMP_temperature;BMP_pressure;BME280_temperature;BME280_humidity;BME280_pressure;Samples;Min_cycle;Max_cycle;Signal;HPM_P1;HPM_P2
2024/01/10 00:01:59;;;;;;;22.15;12.80;;;;;;;-5.16;100.00;93415.09;2081764;28;20030;-78
2024/01/10 00:07:04;;;;;;;25.45;13.27;;;;;;;-5.69;100.00;93426.63;2075439;28;20502;-78
2024/01/10 00:08:06;;;;;;;29.42;14.52;;;;;;;-5.68;100.00;93421.09;2094182;28;20462;-78
2024/01/10 00:09:07;;;;;;;27.63;14.27;;;;;;;-5.38;100.00;93421.25;2084016;28;20543;-78
2024/01/10 00:10:08;;;;;;;27.98;16.00;;;;;;;-5.28;100.00;93413.09;2085097;28;20449;-78
2024/01/10 00:11:14;;;;;;;26.63;15.40;;;;;;;-5.25;100.00;93420.31;2097938;28;20035;-78
2024/01/10 00:12:15;;;;;;;31.00;15.43;;;;;;;-5.49;100.00;93422.63;2077827;28;20695;-78
2024/01/10 00:13:15;;;;;;;28.60;15.65;;;;;;;-5.72;100.00;93419.41;2081468;28;20151;-78
2024/01/10 00:14:16;;;;;;;27.95;14.65;;;;;;;-5.37;100.00;93412.34;2089733;28;20029;-78
2024/01/10 00:15:17;;;;;;;29.23;15.50;;;;;;;-5.46;100.00;93416.81;2079736;28;20460;-78
2024/01/10 00:16:19;;;;;;;26.42;15.48;;;;;;;-5.46;100.00;93422.00;2087958;28;20025;-77
2024/01/10 00:17:20;;;;;;;27.17;15.40;;;;;;;-5.49;100.00;93425.22;2081438;28;21021;-78
2024/01/10 00:18:21;;;;;;;27.15;14.90;;;;;;;-5.64;100.00;93416.81;2079397;28;20104;-78
2024/01/10 00:19:22;;;;;;;28.02;15.05;;;;;;;-5.35;100.00;93421.41;2084169;28;20055;-78
2024/01/10 00:20:23;;;;;;;30.67;16.58;;;;;;;-5.32;100.00;93423.38;2083405;28;20017;-77
2024/01/10 00:21:24;;;;;;;26.35;15.75;;;;;;;-5.11;100.00;93420.13;2091245;28;20453;-78
2024/01/10 00:22:26;;;;;;;27.98;15.50;;;;;;;-5.33;100.00;93418.47;2080763;28;20025;-78
2024/01/10 00:23:27;;;;;;;28.45;15.85;;;;;;;-5.28;100.00;93413.09;2081552;28;20603;-77
2024/01/10 00:24:28;;;;;;;29.70;16.15;;;;;;;-5.69;100.00;93409.16;2089497;28;20508;-78
2024/01/10 00:25:29;;;;;;;28.73;16.02;;;;;;;-5.63;100.00;93412.38;2073054;28;20025;-78
2024/01/10 00:26:30;;;;;;;28.48;16.20;;;;;;;-5.71;100.00;93411.28;2095261;28;20075;-78
2024/01/10 00:27:31;;;;;;;29.08;15.38;;;;;;;-5.52;100.00;93416.19;2074484;28;20026;-77
2024/01/10 00:28:32;;;;;;;30.17;15.40;;;;;;;-5.34;100.00;93407.28;2072418;28;20024;-78
2024/01/10 00:29:33;;;;;;;27.52;15.63;;;;;;;-5.46;100.00;93409.75;2097984;28;20032;-78
2024/01/10 00:30:33;;;;;;;26.88;15.70;;;;;;;-5.48;100.00;93417.13;2084742;28;20061;-78
2024/01/10 00:31:37;;;;;;;29.23;15.82;;;;;;;-5.50;100.00;93411.44;2096685;28;20086;-77
2024/01/10 00:32:38;;;;;;;29.85;16.33;;;;;;;-5.75;100.00;93413.00;2069360;28;20033;-78
2024/01/10 00:33:40;;;;;;;31.38;17.02;;;;;;;-5.66;100.00;93413.75;2060278;28;20105;-78
2024/01/10 00:34:40;;;;;;;30.00;15.52;;;;;;;-5.75;100.00;93413.00;2081056;28;20028;-78
2024/01/10 00:35:41;;;;;;;24.67;15.27;;;;;;;-5.52;100.00;93416.19;2079275;28;20990;-78
2024/01/10 00:36:43;;;;;;;30.95;16.15;;;;;;;-5.58;100.00;93415.56;2089368;28;20025;-78
2024/01/10 00:37:43;;;;;;;27.20;15.18;;;;;;;-5.51;100.00;93419.56;2085197;28;20115;-78
2024/01/10 00:38:44;;;;;;;26.45;15.57;;;;;;;-5.60;100.00;93414.34;2085843;28;20024;-77
2024/01/10 00:39:45;;;;;;;29.45;16.42;;;;;;;-5.52;100.00;93411.00;2097681;28;20028;-78
2024/01/10 00:40:46;;;;;;;26.73;14.95;;;;;;;-5.72;100.00;93407.16;2086478;28;20025;-78
2024/01/10 00:41:47;;;;;;;33.70;17.17;;;;;;;-5.60;100.00;93404.72;2097968;28;20021;-78
2024/01/10 00:42:48;;;;;;;26.08;15.77;;;;;;;-5.55;100.00;93409.00;2091785;28;20468;-78
2024/01/10 00:43:49;;;;;;;25.05;14.35;;;;;;;-5.74;100.00;93400.75;2092353;28;20039;-77
2024/01/10 00:44:50;;;;;;;27.90;15.50;;;;;;;-5.79;100.00;93406.88;2093348;28;20056;-78
2024/01/10 00:45:51;;;;;;;27.73;15.90;;;;;;;-5.57;100.00;93403.34;2075100;28;20639;-78
2024/01/10 00:46:52;;;;;;;29.17;16.27;;;;;;;-5.52;100.00;93407.63;2090698;28;20028;-78
2024/01/10 00:47:53;;;;;;;33.67;16.52;;;;;;;-5.50;100.00;93406.22;2077516;28;20075;-78
2024/01/10 00:48:54;;;;;;;30.50;15.50;;;;;;;-5.68;100.00;93399.50;2076902;28;20469;-78
2024/01/10 00:49:55;;;;;;;32.38;16.85;;;;;;;-5.69;100.00;93409.16;2091144;28;20790;-78
2024/01/10 00:50:56;;;;;;;28.50;15.90;;;;;;;-5.52;100.00;93408.38;2081026;28;20036;-78
2024/01/10 00:51:58;;;;;;;26.63;15.07;;;;;;;-5.60;100.00;93402.09;2088641;28;20044;-77
2024/01/10 00:53:38;;;;;;;27.83;15.80;;;;;;;-5.32;100.00;93406.97;2076038;28;20032;-78
2024/01/10 00:54:39;;;;;;;24.20;13.88;;;;;;;-5.13;100.00;93409.25;2069925;28;20319;-78
2024/01/10 00:55:40;;;;;;;27.42;15.13;;;;;;;-5.34;100.00;93409.13;2063134;28;20034;-78
2024/01/10 00:56:41;;;;;;;30.77;15.20;;;;;;;-5.23;100.00;93399.16;2085207;28;20797;-78
2024/01/10 00:57:42;;;;;;;27.08;15.00;;;;;;;-5.46;100.00;93404.53;2078333;28;20029;-78
2024/01/10 00:58:43;;;;;;;24.83;15.32;;;;;;;-5.51;100.00;93407.31;2075693;28;20167;-78
2024/01/10 00:59:44;;;;;;;26.70;14.40;;;;;;;-5.40;100.00;93412.97;2080927;28;20034;-78
2024/01/10 01:00:44;;;;;;;23.55;13.73;;;;;;;-5.39;100.00;93407.47;2079543;28;20477;-78
2024/01/10 01:01:45;;;;;;;25.45;15.48;;;;;;;-5.07;100.00;93400.97;2089709;28;20087;-77
2024/01/10 01:02:46;;;;;;;26.75;14.98;;;;;;;-5.00;100.00;93405.72;2083151;28;20366;-77
2024/01/10 01:03:47;;;;;;;29.02;15.48;;;;;;;-4.96;100.00;93404.00;2078653;28;20025;-78
2024/01/10 01:04:48;;;;;;;25.40;15.30;;;;;;;-5.14;100.00;93398.06;2079997;28;20080;-78
2024/01/10 01:05:49;;;;;;;24.73;15.00;;;;;;;-5.11;100.00;93415.69;2068486;28;20037;-78
2024/01/10 01:06:51;;;;;;;28.20;16.27;;;;;;;-5.03;100.00;93410.78;2083799;28;20036;-78
2024/01/10 01:07:52;;;;;;;29.08;16.25;;;;;;;-5.06;100.00;93417.34;2064948;28;20048;-78
2024/01/10 01:08:53;;;;;;;27.70;15.63;;;;;;;-5.12;100.00;93408.94;2081033;28;20029;-78
2024/01/10 01:09:54;;;;;;;31.25;16.17;;;;;;;-5.08;100.00;93419.53;2089502;28;20446;-77
2024/01/10 01:10:55;;;;;;;28.00;16.25;;;;;;;-5.31;100.00;93418.94;2076230;28;20457;-78
2024/01/10 01:11:56;;;;;;;28.10;16.13;;;;;;;-5.37;100.00;93420.16;2097622;28;20085;-77
2024/01/10 01:12:57;;;;;;;26.15;14.80;;;;;;;-5.40;100.00;93421.56;2088708;28;20033;-78
2024/01/10 01:13:57;;;;;;;27.92;15.43;;;;;;;-5.36;100.00;93419.84;2087007;28;20108;-78
2024/01/10 01:14:58;;;;;;;26.73;15.63;;;;;;;-5.50;100.00;93416.66;2097143;28;20032;-78
2024/01/10 01:15:59;;;;;;;25.40;17.08;;;;;;;-5.68;100.00;93426.28;2082251;28;20020;-78
2024/01/10 01:17:00;;;;;;;25.13;15.48;;;;;;;-5.88;100.00;93421.72;2084229;28;20034;-78
2024/01/10 01:18:01;;;;;;;26.05;14.63;;;;;;;-5.97;100.00;93426.13;2071704;28;20034;-78
2024/01/10 01:19:02;;;;;;;30.45;16.27;;;;;;;-5.69;100.00;93419.56;2076689;28;20032;-78
2024/01/10 01:20:04;;;;;;;25.38;16.65;;;;;;;-5.85;100.00;93427.03;2081470;28;20029;-78
2024/01/10 01:21:05;;;;;;;32.25;16.67;;;;;;;-6.08;100.00;93420.47;2081879;28;20021;-78
2024/01/10 01:22:06;;;;;;;27.02;15.90;;;;;;;-5.87;100.00;93415.44;2091223;28;20485;-78
2024/01/10 01:23:07;;;;;;;30.65;15.93;;;;;;;-5.89;100.00;93418.31;2088222;28;20051;-77
2024/01/10 01:24:08;;;;;;;27.95;16.90;;;;;;;-5.99;100.00;93425.69;2076862;28;20036;-79
2024/01/10 01:25:12;;;;;;;26.50;16.10;;;;;;;-5.64;100.00;93419.41;2084655;28;20025;-77
2024/01/10 01:26:16;;;;;;;31.73;17.17;;;;;;;-5.65;100.00;93414.53;2065595;28;20488;-78
2024/01/10 01:27:17;;;;;;;32.65;17.33;;;;;;;-5.54;100.00;93407.16;2049992;28;20614;-78
2024/01/10 01:28:18;;;;;;;31.48;16.23;;;;;;;-5.45;100.00;93413.13;2072737;28;20072;-78
2024/01/10 01:29:20;;;;;;;24.25;16.02;;;;;;;-5.37;100.00;93415.72;2084730;28;21564;-78
2024/01/10 01:30:23;;;;;;;27.17;15.93;;;;;;;-5.39;100.00;93419.72;2088613;28;20067;-78
2024/01/10 01:31:25;;;;;;;28.10;16.20;;;;;;;-5.48;100.00;93424.94;2073550;28;20463;-78
2024/01/10 01:32:25;;;;;;;31.52;16.75;;;;;;;-5.67;100.00;93425.22;2077865;28;20994;-78
2024/01/10 01:33:26;;;;;;;26.50;15.82;;;;;;;-5.63;100.00;93426.13;2088960;28;20046;-76
2024/01/10 01:35:04;;;;;;;25.58;15.75;;;;;;;-5.41;100.00;93427.06;2079488;28;20025;-76
2024/01/10 01:36:57;;;;;;;28.90;15.75;;;;;;;-5.60;100.00;93427.38;2070101;28;20484;-76
2024/01/10 01:37:58;;;;;;;24.33;14.45;;;;;;;-5.68;100.00;93421.09;2078686;28;21170;-76
2024/01/10 01:38:59;;;;;;;34.08;16.20;;;;;;;-5.68;100.00;93418.50;2089366;28;20447;-76
2024/01/10 01:40:01;;;;;;;25.77;16.17;;;;;;;-5.79;100.00;93425.09;2097546;28;20042;-76
2024/01/10 01:41:02;;;;;;;28.98;16.10;;;;;;;-5.73;100.00;93415.28;2080833;28;20033;-76
2024/01/10 01:42:06;;;;;;;30.95;16.35;;;;;;;-5.78;100.00;93418.03;2080065;28;20061;-76
2024/01/10 01:43:36;;;;;;;29.02;15.95;;;;;;;-5.71;100.00;93421.69;2077945;28;20471;-75
2024/01/10 01:44:38;;;;;;;26.88;15.32;;;;;;;-5.85;100.00;93428.88;2069220;28;20866;-76
2024/01/10 01:46:18;;;;;;;25.38;15.18;;;;;;;-5.76;100.00;93421.09;2072870;28;20037;-76
2024/01/10 01:47:19;;;;;;;22.83;14.00;;;;;;;-5.80;100.00;93422.75;2087521;28;20443;-76
2024/01/10 01:48:22;;;;;;;30.55;15.88;;;;;;;-5.76;100.00;93427.06;2078195;28;20584;-76
2024/01/10 01:49:25;;;;;;;29.48;15.77;;;;;;;-5.55;100.00;93419.41;2083861;28;20032;-76
2024/01/10 01:50:25;;;;;;;25.75;15.15;;;;;;;-5.69;100.00;93409.16;2088946;28;20040;-76
2024/01/10 01:51:29;;;;;;;25.67;15.63;;;;;;;-5.70;100.00;93414.69;2077249;28;20031;-76
2024/01/10 01:52:31;;;;;;;27.92;15.90;;;;;;;-5.60;100.00;93416.97;2070621;28;20057;-76
2024/01/10 01:53:34;;;;;;;28.88;15.82;;;;;;;-5.59;100.00;93408.84;2080594;28;20029;-75
2024/01/10 01:54:35;;;;;;;28.02;15.45;;;;;;;-5.42;100.00;93408.06;2075623;28;21522;-76
2024/01/10 01:55:36;;;;;;;31.75;17.27;;;;;;;-5.51;100.00;93409.16;2098336;28;20020;-75
2024/01/10 01:56:39;;;;;;;27.02;15.88;;;;;;;-5.45;100.00;93403.47;2078106;28;20020;-76
2024/01/10 01:57:40;;;;;;;29.17;17.38;;;;;;;-5.30;100.00;93407.44;2085867;28;20826;-76
2024/01/10 01:58:43;;;;;;;28.02;16.55;;;;;;;-5.33;100.00;93403.59;2072782;28;20079;-76
2024/01/10 01:59:44;;;;;;;29.38;16.50;;;;;;;-5.15;100.00;93411.41;2077099;28;20080;-76
2024/01/10 02:00:45;;;;;;;31.45;17.20;;;;;;;-5.18;100.00;93406.78;2088517;28;20099;-76
2024/01/10 02:01:46;;;;;;;28.40;17.52;;;;;;;-5.12;100.00;93416.75;2069576;28;20059;-76
2024/01/10 02:02:48;;;;;;;26.75;16.88;;;;;;;-5.24;100.00;93406.19;2074611;28;20459;-76
2024/01/10 02:03:49;;;;;;;29.92;17.60;;;;;;;-5.17;100.00;93403.91;2080443;28;20660;-76
2024/01/10 02:04:50;;;;;;;27.17;16.60;;;;;;;-5.34;100.00;93403.94;2075379;28;20467;-76
2024/01/10 02:05:52;;;;;;;29.85;16.15;;;;;;;-5.37;100.00;93400.09;2097349;28;20421;-75
2024/01/10 02:06:52;;;;;;;28.52;16.38;;;;;;;-5.30;100.00;93404.84;2072476;28;21127;-76
2024/01/10 02:07:55;;;;;;;27.27;16.33;;;;;;;-5.34;100.00;93402.09;2087885;28;20075;-76
2024/01/10 02:08:57;;;;;;;25.42;15.77;;;;;;;-5.32;100.00;93396.56;2088351;28;20028;-75
2024/01/10 02:09:58;;;;;;;27.48;15.73;;;;;;;-5.47;100.00;93410.84;2087633;28;20095;-76
2024/01/10 02:11:00;;;;;;;28.48;16.45;;;;;;;-5.67;100.00;93407.00;2088817;28;20143;-75
2024/01/10 02:12:03;;;;;;;28.73;16.35;;;;;;;-5.45;100.00;93403.47;2065058;28;20474;-76
2024/01/10 02:13:05;;;;;;;28.58;16.08;;;;;;;-5.42;100.00;93409.91;2053220;28;20815;-76
2024/01/10 02:14:06;;;;;;;27.20;15.80;;;;;;;-5.55;100.00;93414.19;2079075;28;20033;-76
2024/01/10 02:15:07;;;;;;;28.20;15.95;;;;;;;-5.61;100.00;93407.63;2088602;28;20104;-76
2024/01/10 02:16:09;;;;;;;30.60;16.85;;;;;;;-5.55;100.00;93408.22;2091518;28;20023;-76
2024/01/10 02:17:10;;;;;;;25.85;16.08;;;;;;;-5.42;100.00;93402.09;2079493;28;20484;-75
2024/01/10 02:18:14;;;;;;;27.75;16.30;;;;;;;-5.40;100.00;93399.94;2082042;28;20508;-76
2024/01/10 02:19:19;;;;;;;25.20;16.25;;;;;;;-5.47;100.00;93400.41;2095989;28;20021;-76
2024/01/10 02:20:21;;;;;;;27.02;16.52;;;;;;;-5.55;100.00;93401.19;2069560;28;20036;-75
2024/01/10 02:21:23;;;;;;;29.42;16.40;;;;;;;-5.52;100.00;93403.19;2075298;28;20022;-75
2024/01/10 02:22:24;;;;;;;27.13;15.98;;;;;;;-5.35;100.00;93405.00;2071025;28;20037;-76
2024/01/10 02:23:25;;;;;;;29.38;16.60;;;;;;;-5.23;100.00;93406.97;2069850;28;20028;-76
2024/01/10 02:24:25;;;;;;;25.50;15.70;;;;;;;-5.30;100.00;93401.47;2088620;28;20429;-76
2024/01/10 02:25:26;;;;;;;25.92;15.75;;;;;;;-5.49;100.00;93412.97;2085059;28;20020;-76
2024/01/10 02:26:28;;;;;;;29.40;16.20;;;;;;;-5.51;100.00;93406.53;2087121;28;20017;-75
2024/01/10 02:27:29;;;;;;;27.00;16.40;;;;;;;-5.58;100.00;93405.16;2085575;28;20025;-76
2024/01/10 02:28:29;;;;;;;28.65;15.73;;;;;;;-5.52;100.00;93408.38;2071532;28;20112;-76
2024/01/10 02:29:31;;;;;;;33.00;16.55;;;;;;;-5.66;100.00;93405.94;2080298;28;20524;-76
2024/01/10 02:30:32;;;;;;;29.65;16.35;;;;;;;-5.62;100.00;93408.69;2071646;28;20014;-76
2024/01/10 02:31:33;;;;;;;29.10;15.65;;;;;;;-5.55;100.00;93411.59;2077655;28;20025;-75
2024/01/10 02:32:35;;;;;;;27.30;15.43;;;;;;;-5.50;100.00;93410.66;2080829;28;20032;-76
2024/01/10 02:33:36;;;;;;;26.17;16.50;;;;;;;-5.48;100.00;93411.16;2068296;28;20401;-76
2024/01/10 02:34:37;;;;;;;27.30;16.05;;;;;;;-5.38;100.00;93410.81;2088795;28;20041;-76
2024/01/10 02:35:38;;;;;;;28.33;16.77;;;;;;;-5.63;100.00;93409.75;2085307;28;20028;-76
2024/01/10 02:36:39;;;;;;;27.67;16.33;;;;;;;-5.59;100.00;93410.69;2087516;28;20032;-76
2024/01/10 02:37:40;;;;;;;27.08;15.60;;;;;;;-5.48;100.00;93404.09;2095583;28;20020;-76
2024/01/10 02:38:40;;;;;;;24.90;15.30;;;;;;;-5.37;100.00;93401.94;2077647;28;20117;-76
2024/01/10 02:39:41;;;;;;;24.67;14.30;;;;;;;-5.37;100.00;93407.13;2084422;28;20382;-76
2024/01/10 02:40:42;;;;;;;27.95;16.45;;;;;;;-5.06;100.00;93404.31;2073626;28;20101;-76
2024/01/10 02:41:43;;;;;;;31.23;16.95;;;;;;;-5.21;100.00;93408.19;2070752;28;20029;-76
2024/01/10 02:42:44;;;;;;;23.83;15.50;;;;;;;-5.34;100.00;93412.50;2096070;28;20082;-76
2024/01/10 02:43:45;;;;;;;28.00;17.13;;;;;;;-5.44;100.00;93401.66;2074039;28;20053;-75
2024/01/10 02:44:46;;;;;;;27.10;16.23;;;;;;;-5.30;100.00;93406.69;2083839;28;20028;-76
2024/01/10 02:45:47;;;;;;;28.63;15.45;;;;;;;-5.32;100.00;93410.34;2083153;28;20120;-75
2024/01/10 02:46:48;;;;;;;27.05;15.55;;;;;;;-5.24;100.00;93410.66;2075614;28;20086;-76
2024/01/10 02:47:48;;;;;;;26.65;15.75;;;;;;;-5.33;100.00;93408.81;2080937;28;20026;-76
2024/01/10 02:48:49;;;;;;;30.90;17.73;;;;;;;-5.45;100.00;93400.09;2074676;28;20068;-76
2024/01/10 02:49:50;;;;;;;31.50;16.20;;;;;;;-5.50;100.00;93402.88;2097112;28;20809;-76
2024/01/10 02:50:51;;;;;;;30.10;16.27;;;;;;;-5.47;100.00;93394.44;2070425;28;20025;-76
2024/01/10 02:51:52;;;;;;;27.13;15.20;;;;;;;-5.11;100.00;93388.84;2073207;28;20128;-76
2024/01/10 02:52:53;;;;;;;26.27;15.52;;;;;;;-5.01;100.00;93385.16;2104591;28;20484;-76
2024/01/10 02:53:54;;;;;;;25.08;15.55;;;;;;;-5.25;100.00;93394.25;2078926;28;20024;-75
2024/01/10 02:54:56;;;;;;;29.75;15.93;;;;;;;-5.51;100.00;93390.91;2088732;28;20045;-75
2024/01/10 02:55:56;;;;;;;26.83;15.50;;;;;;;-5.19;100.00;93395.59;2089016;28;20123;-76
2024/01/10 02:56:57;;;;;;;26.73;16.42;;;;;;;-5.18;100.00;93389.34;2074023;28;20028;-76
2024/01/10 02:57:58;;;;;;;26.98;16.20;;;;;;;-5.41;100.00;93393.19;2086081;28;20068;-76
2024/01/10 02:58:59;;;;;;;27.77;16.23;;;;;;;-5.52;100.00;93390.16;2083587;28;20052;-75
2024/01/10 03:00:00;;;;;;;30.20;16.60;;;;;;;-5.56;100.00;93389.25;2093033;28;20067;-76
2024/01/10 03:01:01;;;;;;;27.95;16.52;;;;;;;-5.59;100.00;93385.41;2082119;28;20079;-76
2024/01/10 03:02:02;;;;;;;28.27;16.35;;;;;;;-5.52;100.00;93384.19;2079029;28;20110;-76
2024/01/10 03:03:04;;;;;;;25.38;15.75;;;;;;;-5.74;100.00;93385.88;2097372;28;20029;-76
2024/01/10 03:04:04;;;;;;;29.35;16.23;;;;;;;-5.53;100.00;93382.63;2085242;28;20636;-76
2024/01/10 03:05:06;;;;;;;26.63;16.55;;;;;;;-5.37;100.00;93394.13;2100784;28;20039;-76
2024/01/10 03:06:07;;;;;;;29.27;16.95;;;;;;;-5.47;100.00;93384.03;2085023;28;20060;-76
2024/01/10 03:07:08;;;;;;;27.40;16.85;;;;;;;-5.56;100.00;93389.25;2088460;28;20458;-76
2024/01/10 03:08:09;;;;;;;26.85;15.90;;;;;;;-5.40;100.00;93397.31;2088812;28;20377;-75
2024/01/10 03:09:09;;;;;;;31.20;16.75;;;;;;;-5.54;100.00;93396.72;2079262;28;20028;-76
2024/01/10 03:10:10;;;;;;;29.83;16.95;;;;;;;-5.72;100.00;93399.34;2089135;28;20139;-76
2024/01/10 03:11:11;;;;;;;27.92;16.77;;;;;;;-5.45;100.00;93393.03;2085449;28;20049;-76
2024/01/10 03:12:12;;;;;;;28.85;17.08;;;;;;;-5.30;100.00;93389.22;2078479;28;20060;-75
2024/01/10 03:13:13;;;;;;;27.65;16.58;;;;;;;-5.50;100.00;93388.00;2087877;28;20155;-76
2024/01/10 03:14:14;;;;;;;28.52;17.35;;;;;;;-5.34;100.00;93386.44;2080212;28;20100;-76
2024/01/10 03:15:15;;;;;;;29.58;17.95;;;;;;;-5.46;100.00;93386.31;2092402;28;20111;-76
2024/01/10 03:16:41;;;;;;;28.50;17.38;;;;;;;-5.23;100.00;93384.28;2072609;28;20037;-75
2024/01/10 03:17:42;;;;;;;27.58;15.38;;;;;;;-5.20;100.00;93383.66;2085026;28;20475;-76
2024/01/10 03:18:43;;;;;;;27.35;17.30;;;;;;;-5.35;100.00;93386.78;2096807;28;20478;-76
2024/01/10 03:19:44;;;;;;;27.80;15.55;;;;;;;-5.39;100.00;93378.03;2079113;28;20039;-76
2024/01/10 03:20:45;;;;;;;29.30;15.75;;;;;;;-5.30;100.00;93385.84;2081577;28;20452;-76
2024/01/10 03:21:46;;;;;;;26.15;15.73;;;;;;;-5.22;100.00;93391.03;2090996;28;20444;-76
2024/01/10 03:22:46;;;;;;;28.48;17.08;;;;;;;-5.33;100.00;93387.97;2081190;28;20045;-75
2024/01/10 03:23:47;;;;;;;30.92;17.05;;;;;;;-5.49;100.00;93386.16;2080126;28;20084;-75
2024/01/10 03:24:48;;;;;;;30.65;15.90;;;;;;;-5.34;100.00;93396.13;2070461;28;20028;-76
2024/01/10 03:25:49;;;;;;;29.38;16.90;;;;;;;-5.48;100.00;93398.88;2068935;28;20026;-76
2024/01/10 03:26:50;;;;;;;27.10;17.08;;;;;;;-5.44;100.00;93397.19;2087957;28;20092;-77
2024/01/10 03:27:51;;;;;;;28.85;16.23;;;;;;;-5.35;100.00;93402.41;2087366;28;20472;-76
2024/01/10 03:28:52;;;;;;;29.30;16.38;;;;;;;-5.32;100.00;93396.56;2096613;28;20078;-74
2024/01/10 03:29:53;;;;;;;29.10;17.13;;;;;;;-5.33;100.00;93395.03;2085808;28;20043;-76
2024/01/10 03:30:54;;;;;;;29.45;17.65;;;;;;;-5.20;100.00;93398.53;2083778;28;20024;-76
2024/01/10 03:31:55;;;;;;;26.75;16.38;;;;;;;-5.29;100.00;93401.16;2091426;28;20120;-76
2024/01/10 03:32:56;;;;;;;30.50;16.92;;;;;;;-5.65;100.00;93401.50;2090015;28;20051;-76
2024/01/10 03:33:58;;;;;;;25.20;15.70;;;;;;;-5.51;100.00;93394.28;2089852;28;20469;-76
2024/01/10 03:34:59;;;;;;;32.47;17.73;;;;;;;-5.50;100.00;93402.88;2079590;28;21210;-76
2024/01/10 03:36:00;;;;;;;25.58;15.25;;;;;;;-5.41;100.00;93408.81;2080164;28;20029;-76
2024/01/10 03:37:01;;;;;;;29.85;16.85;;;;;;;-5.39;100.00;93401.47;2094007;28;20097;-76
2024/01/10 03:38:02;;;;;;;26.50;16.33;;;;;;;-5.36;100.00;93404.22;2084592;28;20021;-76
2024/01/10 03:39:03;;;;;;;28.10;15.70;;;;;;;-5.38;100.00;93403.00;2089914;28;20029;-76
2024/01/10 03:40:04;;;;;;;29.58;16.90;;;;;;;-5.47;100.00;93403.00;2076757;28;20899;-75
2024/01/10 03:41:05;;;;;;;28.98;16.83;;;;;;;-5.42;100.00;93400.25;2070263;28;20882;-76
2024/01/10 03:42:06;;;;;;;30.00;16.27;;;;;;;-5.38;100.00;93400.41;2072923;28;20635;-75
2024/01/10 03:43:09;;;;;;;28.88;16.70;;;;;;;-5.33;100.00;93402.84;2078393;28;20037;-76
2024/01/10 03:44:10;;;;;;;27.40;15.85;;;;;;;-5.22;100.00;93400.69;2100681;28;20024;-75
2024/01/10 03:45:11;;;;;;;29.08;17.45;;;;;;;-5.19;100.00;93395.59;2084303;28;20028;-76
2024/01/10 03:46:21;;;;;;;25.95;15.82;;;;;;;-5.42;100.00;93405.47;2073027;28;20032;-75
2024/01/10 03:47:21;;;;;;;28.08;15.75;;;;;;;-5.50;100.00;93398.41;2076859;28;20131;-76
2024/01/10 03:48:23;;;;;;;29.67;15.85;;;;;;;-5.44;100.00;93409.47;2078564;28;20025;-76
2024/01/10 03:49:24;;;;;;;29.77;16.15;;;;;;;-5.59;100.00;93403.63;2071921;28;20034;-76
2024/01/10 03:50:24;;;;;;;29.73;16.17;;;;;;;-5.37;100.00;93400.09;2088770;28;20902;-76
2024/01/10 03:51:25;;;;;;;31.13;16.38;;;;;;;-5.44;100.00;93401.66;2079394;28;20115;-75
2024/01/10 03:52:26;;;;;;;28.38;16.10;;;;;;;-5.65;100.00;93402.25;2079724;28;20025;-76
2024/01/10 03:53:27;;;;;;;32.30;16.75;;;;;;;-5.69;100.00;93409.16;2070030;28;20025;-76
2024/01/10 03:54:28;;;;;;;31.13;17.10;;;;;;;-5.87;100.00;93400.56;2077829;28;20021;-76
2024/01/10 03:55:29;;;;;;;30.45;16.45;;;;;;;-5.66;100.00;93402.59;2095988;28;20027;-76
2024/01/10 03:56:30;;;;;;;32.22;17.10;;;;;;;-5.65;100.00;93402.25;2084378;28;20028;-76
2024/01/10 03:57:31;;;;;;;33.60;17.42;;;;;;;-5.54;100.00;93394.91;2088653;28;20358;-75
2024/01/10 03:58:32;;;;;;;32.05;18.48;;;;;;;-5.41;100.00;93401.00;2078944;28;20030;-76
2024/01/10 03:59:33;;;;;;;48.47;24.63;;;;;;;-5.59;100.00;93406.22;2079114;28;20032;-76
2024/01/10 04:00:34;;;;;;;44.80;22.83;;;;;;;-5.59;100.00;93401.03;2091485;28;20009;-76
2024/01/10 04:01:35;;;;;;;28.42;16.90;;;;;;;-5.40;100.00;93403.31;2085486;28;20077;-76
2024/01/10 04:02:39;;;;;;;29.45;17.48;;;;;;;-5.75;100.00;93405.19;2100923;28;20028;-75
2024/01/10 04:03:44;;;;;;;30.60;16.55;;;;;;;-5.74;100.00;93406.72;2081178;28;20017;-76
2024/01/10 04:04:45;;;;;;;27.20;15.98;;;;;;;-5.74;100.00;93400.75;2080565;28;20455;-76
2024/01/10 04:05:46;;;;;;;27.50;15.75;;;;;;;-5.68;100.00;93396.91;2097825;28;20020;-76
2024/01/10 04:06:52;;;;;;;30.65;16.83;;;;;;;-5.68;100.00;93400.25;2089184;28;20643;-75
2024/01/10 04:07:54;;;;;;;26.55;17.10;;;;;;;-5.63;100.00;93407.16;2105059;28;20442;-76
2024/01/10 04:08:55;;;;;;;26.27;16.33;;;;;;;-5.66;100.00;93405.94;2081192;28;20523;-76
2024/01/10 04:09:56;;;;;;;27.48;16.70;;;;;;;-5.56;100.00;93394.44;2072460;28;20029;-75
2024/01/10 04:10:58;;;;;;;25.88;16.13;;;;;;;-5.70;100.00;93399.81;2090306;28;20466;-76
2024/01/10 04:11:59;;;;;;;29.15;17.08;;;;;;;-5.49;100.00;93399.19;2089579;28;20376;-76
2024/01/10 04:13:00;;;;;;;30.05;16.98;;;;;;;-5.50;100.00;93406.22;2095614;28;20048;-76
2024/01/10 04:14:01;;;;;;;28.23;15.07;;;;;;;-5.43;100.00;93403.94;2098420;28;20752;-76
2024/01/10 04:15:02;;;;;;;28.60;16.48;;;;;;;-5.50;100.00;93403.63;2084733;28;20036;-75
2024/01/10 04:16:03;;;;;;;28.35;16.52;;;;;;;-5.45;100.00;93405.31;2091438;28;20164;-75
2024/01/10 04:17:06;;;;;;;27.50;16.58;;;;;;;-5.55;100.00;93401.19;2073580;28;20510;-76
2024/01/10 04:18:07;;;;;;;30.90;17.10;;;;;;;-5.58;100.00;93399.94;2069818;28;20028;-77
2024/01/10 04:19:08;;;;;;;27.30;16.63;;;;;;;-5.66;100.00;93399.97;2090575;28;20052;-76
2024/01/10 04:20:10;;;;;;;27.27;16.48;;;;;;;-5.56;100.00;93394.44;2085903;28;20405;-77
2024/01/10 04:21:11;;;;;;;29.30;16.83;;;;;;;-5.63;100.00;93397.50;2094558;28;20122;-76
2024/01/10 04:22:13;;;;;;;25.65;16.13;;;;;;;-5.68;100.00;93389.84;2090397;28;20815;-76
2024/01/10 04:23:14;;;;;;;31.73;18.08;;;;;;;-5.77;100.00;93391.69;2097585;28;20127;-76
2024/01/10 04:24:15;;;;;;;26.30;15.93;;;;;;;-5.79;100.00;93393.84;2089544;28;20024;-76
2024/01/10 04:25:16;;;;;;;23.90;16.20;;;;;;;-5.90;100.00;93393.38;2079564;28;20437;-76
2024/01/10 04:26:16;;;;;;;27.70;16.27;;;;;;;-6.05;100.00;93408.72;2084897;28;20048;-76
2024/01/10 04:27:18;;;;;;;27.17;16.23;;;;;;;-5.97;100.00;93403.50;2087743;28;20493;-76
2024/01/10 04:28:20;;;;;;;25.52;15.82;;;;;;;-5.77;100.00;93406.53;2078769;28;20103;-76
2024/01/10 04:29:21;;;;;;;32.30;17.15;;;;;;;-5.84;100.00;93401.78;2085176;28;20028;-76
2024/01/10 04:30:22;;;;;;;29.60;16.48;;;;;;;-5.59;100.00;93398.41;2097033;28;20016;-75
2024/01/10 04:31:23;;;;;;;27.40;16.42;;;;;;;-5.66;100.00;93398.13;2085116;28;20116;-76
2024/01/10 04:32:24;;;;;;;27.58;16.77;;;;;;;-5.82;100.00;93397.06;2080640;28;20506;-75
2024/01/10 04:33:25;;;;;;;29.17;16.65;;;;;;;-5.75;100.00;93396.59;2084843;28;20021;-75
2024/01/10 04:34:25;;;;;;;29.60;17.45;;;;;;;-5.46;100.00;93399.34;2081251;28;20084;-76
2024/01/10 04:35:26;;;;;;;28.38;15.32;;;;;;;-5.32;100.00;93397.31;2087292;28;20024;-76
2024/01/10 04:36:27;;;;;;;24.45;15.57;;;;;;;-5.37;100.00;93401.94;2095802;28;20021;-76
2024/01/10 04:37:29;;;;;;;25.55;16.00;;;;;;;-5.39;100.00;93401.47;2097664;28;20039;-76
2024/01/10 04:38:30;;;;;;;26.35;15.77;;;;;;;-5.47;100.00;93402.25;2092856;28;20496;-76
2024/01/10 04:39:31;;;;;;;25.98;16.10;;;;;;;-5.40;100.00;93405.13;2089336;28;20041;-77
2024/01/10 04:40:32;;;;;;;29.75;16.05;;;;;;;-5.36;100.00;93406.81;2088925;28;20023;-76
2024/01/10 04:41:33;;;;;;;28.65;17.00;;;;;;;-5.39;100.00;93406.69;2088345;28;20072;-76
2024/01/10 04:42:34;;;;;;;28.58;16.02;;;;;;;-5.35;100.00;93415.44;2088496;28;20059;-75
2024/01/10 04:43:35;;;;;;;29.88;16.50;;;;;;;-5.63;100.00;93415.72;2090706;28;20385;-76
2024/01/10 04:44:36;;;;;;;24.63;15.35;;;;;;;-5.52;100.00;93416.19;2091257;28;20074;-76
2024/01/10 04:45:37;;;;;;;29.80;16.30;;;;;;;-5.53;100.00;93406.88;2089997;28;20465;-76
2024/01/10 04:46:38;;;;;;;28.35;16.85;;;;;;;-5.51;100.00;93406.53;2093480;28;20095;-75
2024/01/10 04:47:39;;;;;;;26.17;15.85;;;;;;;-5.42;100.00;93409.91;2092594;28;20083;-76